Terminal Aerodrome Forecast
Issued by NWS

Home | Current Version | Previous Version | Text Only | Print | Product List | Glossary On
Versions: 1 2 3 4 5 6 7 8 9 10 11 12 13 14 15 16 17 18 19 20 21
000
FTUS43 KDLH 052019 AAA
TAFBRD
TAF AMD
KBRD 052019Z 0520/0618 18015G22KT P6SM VCTS SCT030CB BKN070
      TEMPO 0522/0601 4SM TSRA
     FM060400 17012KT 3SM -RA VCTS SCT015CB OVC025
     FM060700 22009KT 3SM BR VCSH OVC025
     FM061400 35010KT P6SM SCT030 OVC070=

USA.gov is the U.S. government's official web portal to all federal, state and local government web resources and services.